KGRK - Killeen-Ft Hood Rgnl, TX, US

Issued at 0800 UTC 26 May 2019
Updated at 0856 UTC 26 May 2019
Potential Impact None Slight Moderate High
Time0833Z 26/09Z 26/10Z 26/11Z 26/12Z 26/13Z 26/14Z 26/15Z 26/16Z 26/17Z 26/18Z 26/19Z 26/20Z 26/21Z>>
Type OBS PRVL PRVL PRVL
  [TEMP]  
PRVL
  [TEMP]  
PRVL
  [TEMP]  
PRVL
  [TEMP]  
PRVL PRVL PRVL PRVL PRVL PRVL PRVL
VIS 10 4.97 4.97 4.97 4.97 4.97 4.97 >6 >6 >6 >6 >6 >6 >6
CIG -- 15 15 15
  [5]  
15
  [5]  
15
  [5]  
15
  [5]  
20 20 30 30 30 30 --
Cover SCT BKN BKN BKN
  [BKN]  
BKN
  [BKN]  
BKN
  [BKN]  
BKN
  [BKN]  
BKN BKN BKN BKN BKN BKN SCT
FltCat VFR MVFR MVFR MVFR
  [IFR]  
MVFR
  [IFR]  
MVFR
  [IFR]  
MVFR
  [IFR]  
MVFR MVFR MVFR MVFR MVFR MVFR VFR
WX -- BR BR BR
  [--]  
BR
  [--]  
BR
  [--]  
BR
  [--]  
NSW NSW NSW NSW NSW NSW NSW
WDir 150 150 150 150
[150]
150
[150]
150
[150]
150
[150]
160 160 160 160 160 160 150
WSpd 9 9 9 9
  [9]  
9
  [9]  
9
  [9]  
9
  [9]  
15 15 10 10 10 10 10
WGst -- -- -- --
  [--]  
--
  [--]  
--
  [--]  
--
  [--]  
25 25 20 20 20 20 15
Raw TAF
TAF KGRK 260800Z 2608/2714 15009KT 8000 BR BKN015 BKN025 QNH3000INS
  TEMPO 2611/2615 BKN005
  BECMG 2615/2616 16015G25KT 9999 NSW BKN020 QNH3005INS
  BECMG 2617/2618 16010G20KT 9999 BKN030 QNH3000INS
  BECMG 2621/2622 15010G15KT 9999 SCT060 QNH2995INS
  BECMG 2700/2701 15010KT 9999 FEW050 QNH2996INS
  BECMG 2707/2708 14006KT 9999 BKN015 QNH2997INS TX31/2621Z TN21/2612Z


Raw METAR
KGRK 260833Z AUTO 15009KT 10SM FEW015 SCT027 22/20 A3000 RMK AO2 SLP148
KGRK 260828Z AUTO 15008KT 10SM SCT015 BKN027 22/20 A3000 RMK AO2 CIG 015V027 SLP149
KGRK 260758Z AUTO 15010KT 10SM BKN016 BKN024 22/20 A3001 RMK AO2 CIG 016V025 BKN016 V SCT SLP152 T02240199
KGRK 260743Z AUTO 16009KT 10SM SCT018 BKN024 22/20 A3001 RMK AO2 BKN V SCT SLP152
KGRK 260733Z AUTO 15011KT 10SM SCT018 22/20 A3000 RMK AO2 SLP149
KGRK 260728Z AUTO 15013KT 10SM BKN018 22/20 A3000 RMK AO2 SLP149
KGRK 260718Z AUTO 15009KT 10SM SCT017 22/20 A3000 RMK AO2 SLP149
KGRK 260713Z AUTO 14010KT 10SM BKN017 22/20 A3000 RMK AO2 BKN V FEW SLP149
KGRK 260658Z AUTO 15011KT 10SM CLR 22/19 A3000 RMK AO2 SLP149 T02220193
KGRK 260558Z AUTO 15007KT 10SM CLR 23/19 A3001 RMK AO2 SLP152 T02270185 10289 20227 403120222 51013

METAR Board
For situational awareness. Not to be used for flight planning purposes.